createdAt,value
2017-12-30T00:01:40.581Z,4.60
2017-12-30T00:04:45.651Z,4.60
2017-12-30T00:07:51.607Z,4.70
2017-12-30T00:10:56.663Z,4.70
2017-12-30T00:14:01.554Z,4.80
2017-12-30T00:17:06.645Z,4.80
2017-12-30T00:20:12.329Z,4.80
2017-12-30T00:23:17.612Z,4.80
2017-12-30T00:26:23.430Z,4.80
2017-12-30T00:29:29.325Z,4.80
2017-12-30T00:32:34.943Z,4.70
2017-12-30T00:35:40.783Z,4.80
2017-12-30T00:38:45.899Z,4.80
2017-12-30T00:41:50.768Z,4.70
2017-12-30T00:44:56.618Z,4.70
2017-12-30T00:48:03.126Z,4.30
2017-12-30T00:51:08.229Z,4.20
2017-12-30T00:54:14.031Z,4.10
2017-12-30T00:57:19.153Z,4.10
2017-12-30T01:00:24.085Z,4.10
2017-12-30T01:03:29.255Z,4.10
2017-12-30T01:06:34.671Z,4.20
2017-12-30T01:09:40.207Z,4.10
2017-12-30T01:12:45.974Z,4.20
2017-12-30T01:15:52.026Z,4.20
2017-12-30T01:18:56.986Z,4.10
2017-12-30T01:22:03.413Z,4.30
2017-12-30T01:25:08.822Z,4.20
2017-12-30T01:28:14.030Z,4.20
2017-12-30T01:31:20.440Z,4.20
2017-12-30T01:34:27.077Z,4.40
2017-12-30T01:37:32.185Z,4.40
2017-12-30T01:40:37.859Z,4.30
2017-12-30T01:43:42.914Z,4.40
2017-12-30T01:46:48.643Z,4.50
2017-12-30T01:49:54.502Z,4.50
2017-12-30T01:53:00.042Z,4.50
2017-12-30T01:56:05.946Z,4.60
2017-12-30T01:59:11.320Z,4.60
2017-12-30T02:02:17.819Z,4.50
2017-12-30T02:05:22.595Z,4.50
2017-12-30T02:08:28.296Z,4.60
2017-12-30T02:11:33.703Z,4.60
2017-12-30T02:14:38.757Z,4.60
2017-12-30T02:17:43.913Z,4.70
2017-12-30T02:20:49.115Z,4.70
2017-12-30T02:23:53.934Z,4.70
2017-12-30T02:27:00.429Z,4.70
2017-12-30T02:30:06.235Z,4.70
2017-12-30T02:33:11.891Z,4.70
2017-12-30T02:36:16.837Z,4.60
2017-12-30T02:39:22.524Z,4.60
2017-12-30T02:42:27.599Z,4.60
2017-12-30T02:45:33.259Z,4.60
2017-12-30T02:48:37.984Z,4.60
2017-12-30T02:51:43.418Z,4.50
2017-12-30T02:54:50.053Z,4.30
2017-12-30T02:57:55.535Z,4.30
2017-12-30T03:01:01.326Z,4.30
2017-12-30T03:04:06.927Z,4.30
2017-12-30T03:07:12.066Z,4.30
2017-12-30T03:10:17.214Z,4.30
2017-12-30T03:13:22.290Z,4.30
2017-12-30T03:16:27.909Z,4.30
2017-12-30T03:19:33.605Z,4.30
2017-12-30T03:22:38.931Z,4.30
2017-12-30T03:25:44.272Z,4.30
2017-12-30T03:28:50.560Z,4.20
2017-12-30T03:31:55.532Z,4.20
2017-12-30T03:35:01.694Z,4.20
2017-12-30T03:38:06.541Z,4.20
2017-12-30T03:41:12.221Z,4.20
2017-12-30T03:44:17.786Z,4.20
2017-12-30T03:47:22.734Z,4.20
2017-12-30T03:50:28.361Z,4.20
2017-12-30T03:53:33.485Z,4.20
2017-12-30T03:56:39.354Z,4.20
2017-12-30T03:59:45.357Z,4.20
2017-12-30T04:02:50.740Z,4.30
2017-12-30T04:05:56.120Z,4.30
2017-12-30T04:09:01.228Z,4.30
2017-12-30T04:12:07.059Z,4.30
2017-12-30T04:15:12.388Z,4.30
2017-12-30T04:18:18.337Z,4.50
2017-12-30T04:21:23.297Z,4.40
2017-12-30T04:24:28.801Z,4.50
2017-12-30T04:27:34.046Z,4.50
2017-12-30T04:30:39.723Z,4.60
2017-12-30T04:33:45.212Z,4.50
2017-12-30T04:36:51.041Z,4.50
2017-12-30T04:39:56.533Z,4.50
2017-12-30T04:43:02.153Z,4.50
2017-12-30T04:46:07.762Z,4.70
2017-12-30T04:49:12.776Z,4.70
2017-12-30T04:52:19.179Z,4.80
2017-12-30T04:55:24.538Z,4.80
2017-12-30T04:58:30.150Z,4.80
2017-12-30T05:01:36.012Z,4.90
2017-12-30T05:04:41.566Z,4.80
2017-12-30T05:07:46.667Z,4.90
2017-12-30T05:10:52.269Z,4.90
2017-12-30T05:13:57.707Z,4.90
2017-12-30T05:17:02.576Z,4.90
2017-12-30T05:20:08.322Z,4.90
2017-12-30T05:23:13.381Z,4.90
2017-12-30T05:26:18.653Z,4.90
2017-12-30T05:29:24.297Z,5.00
2017-12-30T05:32:29.697Z,5.00
2017-12-30T05:35:35.066Z,4.90
2017-12-30T05:38:41.513Z,4.90
2017-12-30T05:41:47.790Z,4.90
2017-12-30T05:44:53.514Z,4.90
2017-12-30T05:47:59.950Z,4.90
2017-12-30T05:51:05.613Z,4.90
2017-12-30T05:54:11.901Z,4.80
2017-12-30T05:57:16.884Z,4.80
2017-12-30T06:00:22.114Z,4.70
2017-12-30T06:03:27.238Z,4.70
2017-12-30T06:06:32.650Z,4.80
2017-12-30T06:09:37.420Z,4.80
2017-12-30T06:12:42.609Z,4.70
2017-12-30T06:15:48.049Z,4.70
2017-12-30T06:18:53.087Z,4.70
2017-12-30T06:21:59.046Z,4.80
2017-12-30T06:25:04.693Z,4.80
2017-12-30T06:28:09.749Z,4.80
2017-12-30T06:31:15.220Z,4.80
2017-12-30T06:34:20.453Z,4.80
2017-12-30T06:37:26.169Z,4.80
2017-12-30T06:40:31.997Z,4.80
2017-12-30T06:43:38.276Z,4.90
2017-12-30T06:46:44.373Z,4.80
2017-12-30T06:49:49.401Z,4.80
2017-12-30T06:52:55.564Z,4.90
2017-12-30T06:56:01.017Z,4.90
2017-12-30T06:59:06.094Z,4.90
2017-12-30T07:02:11.953Z,4.90
2017-12-30T07:05:17.152Z,4.90
2017-12-30T07:08:22.091Z,5.00
2017-12-30T07:11:26.936Z,5.00
2017-12-30T07:14:32.481Z,5.00
2017-12-30T07:17:37.536Z,5.00
2017-12-30T07:20:42.029Z,5.00
2017-12-30T07:23:48.021Z,5.00
2017-12-30T07:26:53.897Z,5.00
2017-12-30T07:29:59.501Z,5.00
2017-12-30T07:33:04.573Z,5.10
2017-12-30T07:36:10.007Z,5.10
2017-12-30T07:39:15.445Z,5.10
2017-12-30T07:42:21.138Z,5.10
2017-12-30T07:45:26.414Z,5.10
2017-12-30T07:48:32.991Z,5.20
2017-12-30T07:51:38.622Z,5.10
2017-12-30T07:54:44.390Z,5.20
2017-12-30T07:57:49.379Z,5.20
2017-12-30T08:00:55.381Z,5.20
2017-12-30T08:04:00.429Z,5.20
2017-12-30T08:07:05.673Z,5.20
2017-12-30T08:10:11.329Z,5.20
2017-12-30T08:13:16.925Z,5.20
2017-12-30T08:16:22.137Z,5.20
2017-12-30T08:19:27.493Z,5.30
2017-12-30T08:22:33.586Z,5.30
2017-12-30T08:25:38.985Z,5.30
2017-12-30T08:28:45.109Z,5.30
2017-12-30T08:31:52.015Z,5.40
2017-12-30T08:34:57.885Z,5.40
2017-12-30T08:38:03.314Z,5.40
2017-12-30T08:41:09.001Z,5.40
2017-12-30T08:44:13.981Z,5.40
2017-12-30T08:47:19.533Z,5.50
2017-12-30T08:50:24.569Z,5.50
2017-12-30T08:53:29.909Z,5.50
2017-12-30T08:56:34.697Z,5.60
2017-12-30T08:59:40.293Z,5.60
2017-12-30T09:02:45.245Z,5.70
2017-12-30T09:05:50.810Z,5.60
2017-12-30T09:08:55.727Z,5.70
2017-12-30T09:12:00.649Z,5.70
2017-12-30T09:15:06.085Z,5.70
2017-12-30T09:18:11.654Z,5.70
2017-12-30T09:21:16.957Z,5.80
2017-12-30T09:24:22.301Z,5.90
2017-12-30T09:27:27.905Z,5.90
2017-12-30T09:30:33.319Z,5.90
2017-12-30T09:33:39.385Z,6.00
2017-12-30T09:36:44.203Z,6.00
2017-12-30T09:39:50.489Z,6.10
2017-12-30T09:42:55.569Z,6.10
2017-12-30T09:46:00.794Z,6.20
2017-12-30T09:49:05.981Z,6.30
2017-12-30T09:52:11.454Z,6.30
2017-12-30T09:55:16.589Z,6.30
2017-12-30T09:58:21.777Z,6.40
2017-12-30T10:01:26.901Z,6.50
2017-12-30T10:04:32.561Z,6.50
2017-12-30T10:07:37.920Z,6.50
2017-12-30T10:10:43.685Z,6.50
2017-12-30T10:13:48.742Z,6.60
2017-12-30T10:16:54.373Z,6.50
2017-12-30T10:19:59.554Z,6.60
2017-12-30T10:23:06.165Z,6.60
2017-12-30T10:26:11.785Z,6.60
2017-12-30T10:29:16.695Z,6.60
2017-12-30T10:32:22.682Z,6.60
2017-12-30T10:35:29.042Z,6.80
2017-12-30T10:38:34.649Z,6.80
2017-12-30T10:41:40.274Z,6.90
2017-12-30T10:44:46.511Z,6.90
2017-12-30T10:47:53.109Z,6.90
2017-12-30T10:50:58.380Z,6.80
2017-12-30T10:54:03.899Z,7.00
2017-12-30T10:57:09.577Z,7.10
2017-12-30T11:00:14.694Z,7.20
2017-12-30T11:03:20.175Z,7.30
2017-12-30T11:06:24.981Z,7.20
2017-12-30T11:09:30.014Z,7.10
2017-12-30T11:12:35.890Z,7.20
2017-12-30T11:15:42.006Z,7.30
2017-12-30T11:18:47.167Z,7.30
2017-12-30T11:21:53.509Z,7.40
2017-12-30T11:24:58.902Z,7.40
2017-12-30T11:28:04.677Z,7.40
2017-12-30T11:31:10.456Z,7.60
2017-12-30T11:34:15.581Z,7.50
2017-12-30T11:37:20.525Z,7.70
2017-12-30T11:40:26.688Z,7.80
2017-12-30T11:43:32.456Z,7.80
2017-12-30T11:46:37.773Z,8.10
2017-12-30T11:49:42.753Z,8.20
2017-12-30T11:52:49.734Z,8.60
2017-12-30T11:55:54.587Z,8.50
2017-12-30T11:59:00.224Z,8.60
2017-12-30T12:02:05.944Z,8.70
2017-12-30T12:05:13.304Z,8.70
2017-12-30T12:08:18.989Z,8.80
2017-12-30T12:11:24.341Z,8.80
2017-12-30T12:14:38.103Z,8.70
2017-12-30T12:17:44.054Z,8.60
2017-12-30T12:20:49.630Z,8.60
2017-12-30T12:23:54.617Z,8.50
2017-12-30T12:27:00.486Z,8.50
2017-12-30T12:30:06.058Z,8.50
2017-12-30T12:33:11.605Z,8.50
2017-12-30T12:36:17.222Z,8.60
2017-12-30T12:39:22.736Z,8.70
2017-12-30T12:42:28.249Z,8.80
2017-12-30T12:45:33.335Z,8.80
2017-12-30T12:48:38.647Z,8.90
2017-12-30T12:51:43.881Z,9.00
2017-12-30T12:54:49.729Z,9.30
2017-12-30T12:57:55.859Z,9.30
2017-12-30T13:01:01.185Z,9.30
2017-12-30T13:04:06.541Z,9.40
2017-12-30T13:07:11.399Z,9.50
2017-12-30T13:10:16.954Z,9.60
2017-12-30T13:13:23.053Z,9.70
2017-12-30T13:16:28.199Z,9.80
2017-12-30T13:19:33.142Z,9.90
2017-12-30T13:22:39.403Z,10.10
2017-12-30T13:25:44.433Z,10.10
2017-12-30T13:28:50.391Z,10.20
2017-12-30T13:31:56.174Z,10.30
2017-12-30T13:35:01.501Z,10.40
2017-12-30T13:38:07.073Z,10.50
2017-12-30T13:41:13.353Z,10.60
2017-12-30T13:44:17.887Z,10.60
2017-12-30T13:47:23.139Z,10.70
2017-12-30T13:50:28.689Z,10.70
2017-12-30T13:53:33.987Z,10.80
2017-12-30T13:56:40.734Z,10.90
2017-12-30T13:59:46.203Z,10.90
2017-12-30T14:02:51.157Z,11.10
2017-12-30T14:05:56.685Z,11.10
2017-12-30T14:09:02.310Z,11.10
2017-12-30T14:12:07.462Z,11.20
2017-12-30T14:15:12.381Z,11.30
2017-12-30T14:18:18.108Z,11.30
2017-12-30T14:21:23.377Z,11.50
2017-12-30T14:24:30.262Z,11.60
2017-12-30T14:27:35.073Z,11.60
2017-12-30T14:30:40.821Z,11.70
2017-12-30T14:33:45.990Z,11.70
2017-12-30T14:36:51.949Z,11.90
2017-12-30T14:39:57.178Z,11.90
2017-12-30T14:43:02.056Z,11.90
2017-12-30T14:46:08.092Z,11.90
2017-12-30T14:49:15.379Z,11.90
2017-12-30T14:52:21.195Z,11.90
2017-12-30T14:55:27.954Z,12.00
2017-12-30T14:58:34.009Z,12.00
2017-12-30T15:01:39.562Z,12.10
2017-12-30T15:04:46.045Z,12.10
2017-12-30T15:07:51.445Z,12.20
2017-12-30T15:10:58.736Z,12.20
2017-12-30T15:14:03.530Z,12.10
2017-12-30T15:17:09.205Z,12.10
2017-12-30T15:20:14.561Z,12.10
2017-12-30T15:23:20.244Z,12.10
2017-12-30T15:26:25.432Z,12.00
2017-12-30T15:29:30.869Z,12.10
2017-12-30T15:32:36.178Z,12.20
2017-12-30T15:35:41.129Z,12.10
2017-12-30T15:38:46.650Z,12.20
2017-12-30T15:41:52.243Z,12.30
2017-12-30T15:44:57.685Z,12.20
2017-12-30T15:48:02.926Z,12.20
2017-12-30T15:51:08.390Z,12.30
2017-12-30T15:54:13.297Z,12.30
2017-12-30T15:57:19.059Z,12.20
2017-12-30T16:00:24.705Z,12.10
2017-12-30T16:03:29.701Z,12.20
2017-12-30T16:06:35.895Z,12.20
2017-12-30T16:09:41.185Z,12.20
2017-12-30T16:12:46.941Z,12.20
2017-12-30T16:15:52.654Z,12.30
2017-12-30T16:18:59.719Z,12.30
2017-12-30T16:22:05.699Z,12.30
2017-12-30T16:25:10.894Z,12.30
2017-12-30T16:28:15.837Z,12.30
2017-12-30T16:31:21.125Z,12.20
2017-12-30T16:34:26.843Z,12.30
2017-12-30T16:37:32.182Z,12.30
2017-12-30T16:40:37.845Z,12.30
2017-12-30T16:43:44.107Z,12.30
2017-12-30T16:46:49.086Z,12.20
2017-12-30T16:49:54.533Z,12.40
2017-12-30T16:53:00.225Z,12.30
2017-12-30T16:56:05.379Z,12.30
2017-12-30T16:59:11.561Z,12.40
2017-12-30T17:02:16.509Z,12.40
2017-12-30T17:05:22.323Z,12.40
2017-12-30T17:08:27.616Z,12.40
2017-12-30T17:11:33.509Z,12.40
2017-12-30T17:14:39.329Z,12.40
2017-12-30T17:17:45.410Z,12.40
2017-12-30T17:20:50.813Z,12.40
2017-12-30T17:23:55.957Z,12.40
2017-12-30T17:27:00.996Z,12.50
2017-12-30T17:30:05.892Z,12.50
2017-12-30T17:33:11.985Z,12.50
2017-12-30T17:36:16.986Z,12.50
2017-12-30T17:39:22.453Z,12.20
2017-12-30T17:42:27.637Z,12.20
2017-12-30T17:45:33.185Z,12.10
2017-12-30T17:48:38.841Z,12.10
2017-12-30T17:51:44.301Z,11.90
2017-12-30T17:54:50.489Z,11.90
2017-12-30T17:57:55.850Z,11.90
2017-12-30T18:01:01.213Z,11.90
2017-12-30T18:04:06.849Z,11.80
2017-12-30T18:07:12.318Z,11.80
2017-12-30T18:10:17.266Z,11.90
2017-12-30T18:13:22.246Z,11.90
2017-12-30T18:16:27.206Z,11.90
2017-12-30T18:19:32.669Z,11.90
2017-12-30T18:22:37.830Z,12.00
2017-12-30T18:25:43.599Z,11.90
2017-12-30T18:28:48.670Z,11.90
2017-12-30T18:31:54.646Z,12.00
2017-12-30T18:35:00.300Z,12.00
2017-12-30T18:38:06.333Z,11.90
2017-12-30T18:41:12.341Z,12.00
2017-12-30T18:44:18.844Z,11.90
2017-12-30T18:47:24.297Z,11.90
2017-12-30T18:50:30.117Z,11.90
2017-12-30T18:53:35.649Z,11.90
2017-12-30T18:56:41.446Z,11.80
2017-12-30T18:59:46.591Z,11.90
2017-12-30T19:02:52.095Z,11.90
2017-12-30T19:05:57.482Z,11.80
2017-12-30T19:09:02.553Z,11.80
2017-12-30T19:12:08.241Z,11.80
2017-12-30T19:15:13.229Z,11.80
2017-12-30T19:18:18.120Z,11.70
2017-12-30T19:21:23.465Z,11.70
2017-12-30T19:24:29.386Z,11.60
2017-12-30T19:27:35.197Z,11.60
2017-12-30T19:30:40.122Z,11.70
2017-12-30T19:33:46.098Z,11.80
2017-12-30T19:36:51.702Z,11.70
2017-12-30T19:39:57.351Z,11.80
2017-12-30T19:43:02.502Z,11.80
2017-12-30T19:46:08.194Z,11.80
2017-12-30T19:49:13.953Z,11.80
2017-12-30T19:52:18.843Z,11.70
2017-12-30T19:55:24.158Z,11.70
2017-12-30T19:58:29.622Z,11.70
2017-12-30T20:01:35.502Z,11.80
2017-12-30T20:04:40.982Z,11.80
2017-12-30T20:07:46.790Z,11.80
2017-12-30T20:10:53.267Z,11.80
2017-12-30T20:13:58.323Z,11.80
2017-12-30T20:17:04.244Z,11.90
2017-12-30T20:20:09.632Z,11.90
2017-12-30T20:23:14.823Z,11.90
2017-12-30T20:26:21.096Z,11.90
2017-12-30T20:29:26.726Z,11.90
2017-12-30T20:32:32.694Z,11.90
2017-12-30T20:35:37.913Z,11.90
2017-12-30T20:38:42.891Z,11.90
2017-12-30T20:41:48.618Z,11.90
2017-12-30T20:44:53.616Z,11.90
2017-12-30T20:47:59.342Z,11.90
2017-12-30T20:51:05.566Z,11.90
2017-12-30T20:54:11.385Z,11.90
2017-12-30T20:57:17.142Z,11.90
2017-12-30T21:00:21.990Z,11.90
2017-12-30T21:03:27.792Z,12.00
2017-12-30T21:06:32.919Z,12.00
2017-12-30T21:09:38.864Z,12.00
2017-12-30T21:12:44.630Z,12.00
2017-12-30T21:15:49.818Z,12.00
2017-12-30T21:18:54.846Z,12.00
2017-12-30T21:22:00.492Z,12.10
2017-12-30T21:25:05.914Z,12.20
2017-12-30T21:28:12.132Z,12.20
2017-12-30T21:31:17.638Z,12.20
2017-12-30T21:34:22.574Z,12.20
2017-12-30T21:37:27.602Z,12.30
2017-12-30T21:40:32.940Z,12.30
2017-12-30T21:43:38.519Z,12.30
2017-12-30T21:46:44.082Z,12.40
2017-12-30T21:49:49.569Z,12.30
2017-12-30T21:52:55.034Z,12.40
2017-12-30T21:56:00.028Z,12.40
2017-12-30T21:59:05.793Z,12.50
2017-12-30T22:02:11.691Z,12.40
2017-12-30T22:05:16.774Z,12.50
2017-12-30T22:08:22.234Z,12.50
2017-12-30T22:11:27.606Z,12.50
2017-12-30T22:14:33.087Z,12.60
2017-12-30T22:17:39.196Z,12.60
2017-12-30T22:20:44.784Z,12.60
2017-12-30T22:23:49.708Z,12.60
2017-12-30T22:26:54.595Z,12.70
2017-12-30T22:30:00.598Z,12.60
2017-12-30T22:33:05.556Z,12.60
2017-12-30T22:36:11.134Z,12.70
2017-12-30T22:39:16.771Z,12.60
2017-12-30T22:42:22.198Z,12.60
2017-12-30T22:45:27.370Z,12.60
2017-12-30T22:48:33.371Z,12.60
2017-12-30T22:51:39.206Z,12.60
2017-12-30T22:54:45.250Z,12.60
2017-12-30T22:57:50.658Z,12.60
2017-12-30T23:01:05.682Z,12.60
2017-12-30T23:04:11.012Z,12.50
2017-12-30T23:07:16.187Z,12.60
2017-12-30T23:10:21.687Z,12.60
2017-12-30T23:13:27.123Z,12.60
2017-12-30T23:16:32.314Z,12.60
2017-12-30T23:19:37.802Z,12.60
2017-12-30T23:22:44.251Z,12.60
2017-12-30T23:25:49.883Z,12.60
2017-12-30T23:28:55.450Z,12.60
2017-12-30T23:32:01.516Z,12.70
2017-12-30T23:35:07.400Z,12.70
2017-12-30T23:38:12.913Z,12.70
2017-12-30T23:41:18.710Z,12.60
2017-12-30T23:44:23.750Z,12.60
2017-12-30T23:47:29.210Z,12.60
2017-12-30T23:50:34.814Z,12.70
2017-12-30T23:53:40.929Z,12.70
2017-12-30T23:56:46.550Z,12.80
2017-12-30T23:59:52.183Z,12.80
